Flight Track Log - Related Links

Times and Time Zones

All times are in EDT time to prevent confusion due to time zone crossing. See the SWA127 flight status page for this flight to view local times or setup timezone preferences in your user account.

Time Position Orientation Groundspeed Altitude Reporting Facility
EDT Latitude Longitude Course Direction KTS MPH feet Rate Location/Type
Wed 11:56:30 AM 29.6519 -95.2872 284° West 154 177 800  Level Houston Center
Wed 11:57:43 AM 29.6667 -95.3550 284° West 253 291 3,800 2,103 Climbing Houston Center
Wed 11:58:27 AM 29.6389 -95.3900 228° Southwest 272 313 4,900 1,258 Climbing Houston Center
Wed 11:58:45 AM 29.6147 -95.4069 211° Southwest 262 302 5,100  Climbing Houston Center
Wed 11:59:29 AM 29.5703 -95.4083 182° South 269 310 4,900 393 Descending Houston Center
Wed 11:59:46 AM 29.5414 -95.4086 180° South 265 305 5,500 3,000 Climbing Houston Center
Wed 12:00:31 PM 29.4847 -95.4011 173° South 263 303 8,000 1,862 Climbing Houston Center
Wed 12:01:42 PM 29.4150 -95.3350 140° Southeast 297 342 9,100 435 Climbing Houston Center
Wed 12:02:35 PM 29.3542 -95.3181 166° South 295 339 8,900 -104 Descending Houston Center
Wed 12:03:37 PM 29.2772 -95.3219 183° South 278 320 8,900 1,065 Level Houston Center
Wed 12:04:39 PM 29.2042 -95.3489 198° South 279 321 11,100 2,468 Climbing Houston Center
Wed 12:05:41 PM 29.1300 -95.3922 207° Southwest 299 344 14,000 2,129 Climbing Houston Center
Wed 12:06:43 PM 29.0461 -95.4408 207° Southwest 335 386 15,500 2,177 Climbing Houston Center
Wed 12:07:45 PM 28.9458 -95.5194 214° Southwest 361 415 18,500 2,419 Climbing Houston Center
Wed 12:08:47 PM 28.8619 -95.5897 216° Southwest 372 428 20,500 2,032 Climbing Houston Center
Wed 12:09:49 PM 28.7728 -95.6606 215° Southwest 385 443 22,700 1,710 Climbing Houston Center
Wed 12:11:00 PM 28.6894 -95.7284 216° Southwest  Level FlightAware Approximate
Wed 12:11:53 PM 28.5883 -95.8094 216° Southwest 408 470 25,800  Level Houston Center
Wed 12:12:55 PM 28.4911 -95.8872 215° Southwest 420 483 27,500 2,129 Climbing Houston Center
Wed 12:13:57 PM 28.3758 -95.9781 215° Southwest 421 484 30,200 1,935 Climbing Houston Center
Wed 12:14:59 PM 28.2833 -96.0528 215° Southwest 412 474 31,500 1,548 Climbing Houston Center
Wed 12:16:01 PM 28.1897 -96.1289 216° Southwest 412 474 33,400 1,210 Climbing Houston Center
Wed 12:17:03 PM 28.0994 -96.2036 216° Southwest 409 471 34,000 290 Climbing Houston Center
Wed 12:18:05 PM 28.0108 -96.2692 213° Southwest 397 457 34,000  Level Houston Center
Wed 12:19:07 PM 27.9203 -96.3417 215° Southwest 397 457 34,000  Level Houston Center
Wed 12:20:09 PM 27.8281 -96.4136 215° Southwest 400 460 34,000  Level Houston Center
Wed 12:21:11 PM 27.7172 -96.5006 215° Southwest 402 463 34,000  Level Houston Center
Wed 12:22:14 PM 27.6250 -96.5753 216° Southwest 405 466 34,000  Level Houston Center
Wed 12:23:15 PM 27.5322 -96.6472 215° Southwest 405 466 34,000 -244 Level Houston Center
Wed 12:24:17 PM 27.4411 -96.7178 215° Southwest 400 460 33,500 -1,872 Descending Houston Center
Wed 12:25:20 PM 27.3475 -96.7911 215° Southwest 405 466 30,100 -3,312 Descending Houston Center
Wed 12:26:22 PM 27.2422 -96.8739 215° Southwest 420 483 26,600 -2,952 Descending Houston Center
Wed 12:27:24 PM 27.1467 -96.9472 214° Southwest 420 483 24,000 -2,516 Descending Houston Center
Wed 12:28:26 PM 27.0472 -96.9964 204° Southwest 407 468 21,400 -2,565 Descending Houston Center
Wed 12:29:28 PM 26.9083 -96.9972 180° South 414 476 18,700 -2,467 Descending Houston Center
Wed 12:29:56 PM 26.8528 -96.9986 181° South 401 461 17,700 -1,742 Descending Houston Center
Wed 12:30:30 PM 26.7992 -97.0033 184° South 400 460 16,900 -1,315 Descending Houston Center
Wed 12:31:09 PM 26.7506 -97.0458 218° Southwest 340 391 16,100 -1,355 Descending Houston Center
Wed 12:31:32 PM 26.7311 -97.0731 231° Southwest 347 399 15,500 -3,049 Descending Houston Center
Wed 12:32:10 PM 26.6856 -97.1231 224° Southwest 329 379 13,000 -3,581 Descending Houston Center
Wed 12:32:34 PM 26.6497 -97.1528 217° Southwest 349 402 11,800 -1,300 Descending Houston Center
Wed 12:33:10 PM 26.6025 -97.1883 214° Southwest 324 373 11,700 -571 Descending Houston Center
Wed 12:33:37 PM 26.5789 -97.2056 213° Southwest 297 342 11,200 -1,574 Descending Houston Center
Wed 12:34:11 PM 26.5364 -97.2372 214° Southwest 276 318 10,100 -1,742 Descending Houston Center
Wed 12:34:39 PM 26.5081 -97.2592 215° Southwest 284 327 9,400 -1,500 Descending Houston Center
Wed 12:35:11 PM 26.4722 -97.2858 214° Southwest 278 320 8,600 -1,548 Descending Houston Center
Wed 12:35:41 PM 26.4447 -97.3075 215° Southwest 278 320 7,800 -1,672 Descending Houston Center
Wed 12:36:12 PM 26.4103 -97.3342 215° Southwest 276 318 6,900 -1,548 Descending Houston Center
Wed 12:36:43 PM 26.3828 -97.3583 218° Southwest 276 318 6,200 -1,527 Descending Houston Center
Wed 12:37:07 PM 26.3544 -97.3814 216° Southwest 274 315 5,500 -1,645 Descending Houston Center
Wed 12:37:45 PM 26.3183 -97.4133 218° Southwest 271 312 4,500 -1,500 Descending Houston Center
Wed 12:38:07 PM 26.2950 -97.4339 218° Southwest 270 311 4,000 -484 Descending Houston Center
Wed 12:38:47 PM 26.2606 -97.4669 221° Southwest 269 310 4,000  Level Houston Center
Wed 12:39:08 PM 26.2378 -97.4883 220° Southwest 269 310 4,000  Level Houston Center
Wed 12:39:49 PM 26.1975 -97.5244 219° Southwest 270 311 4,000  Level Houston Center
Wed 12:40:14 PM 26.1747 -97.5458 220° Southwest 271 312 4,000 -387 Level Houston Center
Wed 12:40:51 PM 26.1372 -97.5758 216° Southwest 272 313 3,600 -1,082 Descending Houston Center
Wed 12:41:15 PM 26.1094 -97.5850 197° South 264 304 2,900 -1,548 Descending Houston Center
Wed 12:41:53 PM 26.0658 -97.6017 199° South 267 307 2,000 -885 Descending Houston Center
Wed 12:42:16 PM 26.0417 -97.6175 210° Southwest 262 302 2,000  Level Houston Center
Wed 12:42:55 PM 26.0492 -97.6533 283° West 201 231 2,000  Level Houston Center
Wed 12:43:22 PM 26.0675 -97.6631 335° Northwest 151 174 2,000 -290 Level Houston Center
Wed 12:43:57 PM 26.0897 -97.6589 10° North 153 176 1,700 -492 Descending Houston Center
Wed 12:44:23 PM 26.1092 -97.6575 North 137 158 1,500 -194 Descending Houston Center
Wed 12:44:59 PM 26.1333 -97.6586 358° North 147 169 1,500  Level Houston Center
Wed 12:45:24 PM 26.1453 -97.6619 346° North 124 143 1,500 -290 Level Houston Center
Wed 12:46:01 PM 26.1667 -97.6594 North 125 144 1,200 -556 Descending Houston Center
Wed 12:46:18 PM 26.1767 -97.6600 357° North 117 135 1,000 -774 Descending Houston Center
Wed 12:47:03 PM 26.2025 -97.6589 North 121 139 400 -800 Descending Houston Center

Login

Don't have an account? Register now (free) for customized features, flight alerts, and more!